Fairchild Air Force Base Spokane US
ICAO: KSKA
IATA: SKA
Category: Large
Scheduled Services: No

Elevation: 2461 ft
TransAlt. 18000 ft.

Airport Communications:
SPOKANE APP/DEP:123.75
ATIS:25.762
GND:121.85
WASHINGTON ANG OPS:29.37
PMSV METRO:23.48
COMD POST:31.1
PTD:130
TWR:126.2

KSKA Zoom In..

If you have problems with the map follow the link
https://www.worldairports.se/pages/airport.php?
ICAO=KSKA

Runways:

(A) RW 05 length 13899 ft width 150 ft
ILS 110.30 / hdg 51

(B) RW 23 length 13899 ft width 150 ft
ILS 110.30 / hdg 231

Location; KSKA
Day. 08 / Time. 12.58 Zulu
* Altimeter: 29.81
* Temperature: 02° c. 35.6°f.
* Wind from: 240° Speed 07 kn.
Dewpoint: 02° c.
Visibility: 10 Statute Miles.
Clouds: Overcast 500 ft.

KSKA 081258Z 24007KT 10SM OVC005 02/02 A2981 RMK AO2A CIG 003V005 SLP112 T00160016 $


Wind From 240°
Speed 07 kn.

 
 
jpsmedia worldairports.se 2019   terms of use